sensor_id;sensor_type;location;lat;lon;timestamp;P1;durP1;ratioP1;P2;durP2;ratioP2
9398;SDS011;4739;49.334;8.792;2023-02-28T00:02:20;2.90;;;2.10;;
9398;SDS011;4739;49.334;8.792;2023-02-28T00:04:45;2.70;;;2.30;;
9398;SDS011;4739;49.334;8.792;2023-02-28T00:07:17;2.97;;;2.43;;
9398;SDS011;4739;49.334;8.792;2023-02-28T00:09:43;2.30;;;2.10;;
9398;SDS011;4739;49.334;8.792;2023-02-28T00:12:09;3.60;;;2.27;;
9398;SDS011;4739;49.334;8.792;2023-02-28T00:14:40;2.80;;;2.30;;
9398;SDS011;4739;49.334;8.792;2023-02-28T00:17:05;2.30;;;2.10;;
9398;SDS011;4739;49.334;8.792;2023-02-28T00:19:31;2.50;;;2.23;;
9398;SDS011;4739;49.334;8.792;2023-02-28T00:21:56;2.37;;;2.17;;
9398;SDS011;4739;49.334;8.792;2023-02-28T00:24:22;3.80;;;2.40;;
9398;SDS011;4739;49.334;8.792;2023-02-28T00:26:47;2.40;;;2.20;;
9398;SDS011;4739;49.334;8.792;2023-02-28T00:29:13;2.50;;;2.20;;
9398;SDS011;4739;49.334;8.792;2023-02-28T00:31:38;3.93;;;2.40;;
9398;SDS011;4739;49.334;8.792;2023-02-28T00:34:04;3.60;;;2.67;;
9398;SDS011;4739;49.334;8.792;2023-02-28T00:36:29;2.30;;;2.10;;
9398;SDS011;4739;49.334;8.792;2023-02-28T00:38:55;4.00;;;2.80;;
9398;SDS011;4739;49.334;8.792;2023-02-28T00:41:20;2.43;;;1.97;;
9398;SDS011;4739;49.334;8.792;2023-02-28T00:43:46;3.13;;;2.23;;
9398;SDS011;4739;49.334;8.792;2023-02-28T00:46:12;3.90;;;2.20;;
9398;SDS011;4739;49.334;8.792;2023-02-28T00:48:37;2.73;;;2.40;;
9398;SDS011;4739;49.334;8.792;2023-02-28T00:51:03;2.40;;;2.20;;
9398;SDS011;4739;49.334;8.792;2023-02-28T00:53:29;2.80;;;2.53;;
9398;SDS011;4739;49.334;8.792;2023-02-28T00:55:55;2.60;;;2.33;;
9398;SDS011;4739;49.334;8.792;2023-02-28T00:58:20;2.63;;;2.43;;
9398;SDS011;4739;49.334;8.792;2023-02-28T01:00:46;2.57;;;2.37;;
9398;SDS011;4739;49.334;8.792;2023-02-28T01:03:14;3.80;;;2.70;;
9398;SDS011;4739;49.334;8.792;2023-02-28T01:05:41;2.60;;;2.40;;
9398;SDS011;4739;49.334;8.792;2023-02-28T01:08:06;3.50;;;2.73;;
9398;SDS011;4739;49.334;8.792;2023-02-28T01:10:32;3.20;;;2.40;;
9398;SDS011;4739;49.334;8.792;2023-02-28T01:12:57;2.73;;;2.47;;
9398;SDS011;4739;49.334;8.792;2023-02-28T01:15:23;5.20;;;2.60;;
9398;SDS011;4739;49.334;8.792;2023-02-28T01:17:49;2.83;;;2.37;;
9398;SDS011;4739;49.334;8.792;2023-02-28T01:20:14;2.63;;;2.33;;
9398;SDS011;4739;49.334;8.792;2023-02-28T01:22:40;2.70;;;2.20;;
9398;SDS011;4739;49.334;8.792;2023-02-28T01:25:06;2.47;;;2.27;;
9398;SDS011;4739;49.334;8.792;2023-02-28T01:27:33;4.47;;;2.40;;
9398;SDS011;4739;49.334;8.792;2023-02-28T01:29:58;3.33;;;2.60;;
9398;SDS011;4739;49.334;8.792;2023-02-28T01:32:24;4.03;;;2.60;;
9398;SDS011;4739;49.334;8.792;2023-02-28T01:34:49;3.50;;;2.50;;
9398;SDS011;4739;49.334;8.792;2023-02-28T01:37:15;2.70;;;2.47;;
9398;SDS011;4739;49.334;8.792;2023-02-28T01:39:41;4.07;;;2.63;;
9398;SDS011;4739;49.334;8.792;2023-02-28T01:42:08;2.83;;;2.40;;
9398;SDS011;4739;49.334;8.792;2023-02-28T01:47:26;2.90;;;2.47;;
9398;SDS011;4739;49.334;8.792;2023-02-28T01:49:55;3.97;;;2.80;;
9398;SDS011;4739;49.334;8.792;2023-02-28T01:52:21;2.90;;;2.43;;
9398;SDS011;4739;49.334;8.792;2023-02-28T01:54:49;3.80;;;2.80;;
9398;SDS011;4739;49.334;8.792;2023-02-28T01:57:19;3.50;;;2.80;;
9398;SDS011;4739;49.334;8.792;2023-02-28T01:59:53;3.57;;;2.80;;
9398;SDS011;4739;49.334;8.792;2023-02-28T02:02:24;3.97;;;2.90;;
9398;SDS011;4739;49.334;8.792;2023-02-28T02:04:52;4.57;;;2.77;;
9398;SDS011;4739;49.334;8.792;2023-02-28T02:07:21;3.37;;;3.07;;
9398;SDS011;4739;49.334;8.792;2023-02-28T02:09:48;3.97;;;2.90;;
9398;SDS011;4739;49.334;8.792;2023-02-28T02:12:30;3.50;;;2.77;;
9398;SDS011;4739;49.334;8.792;2023-02-28T02:15:11;3.83;;;2.93;;
9398;SDS011;4739;49.334;8.792;2023-02-28T02:17:43;3.20;;;2.90;;
9398;SDS011;4739;49.334;8.792;2023-02-28T02:36:45;3.20;;;2.90;;
9398;SDS011;4739;49.334;8.792;2023-02-28T02:39:25;3.30;;;3.00;;
9398;SDS011;4739;49.334;8.792;2023-02-28T02:42:01;3.53;;;3.10;;
9398;SDS011;4739;49.334;8.792;2023-02-28T02:47:08;2.90;;;2.70;;
9398;SDS011;4739;49.334;8.792;2023-02-28T02:49:39;3.27;;;2.67;;
9398;SDS011;4739;49.334;8.792;2023-02-28T02:52:12;3.27;;;2.87;;
9398;SDS011;4739;49.334;8.792;2023-02-28T02:54:41;3.80;;;3.03;;
9398;SDS011;4739;49.334;8.792;2023-02-28T02:57:12;4.03;;;2.90;;
9398;SDS011;4739;49.334;8.792;2023-02-28T02:59:46;3.73;;;3.33;;
9398;SDS011;4739;49.334;8.792;2023-02-28T03:02:14;4.07;;;3.03;;
9398;SDS011;4739;49.334;8.792;2023-02-28T03:05:03;3.40;;;3.10;;
9398;SDS011;4739;49.334;8.792;2023-02-28T03:07:29;4.07;;;2.97;;
9398;SDS011;4739;49.334;8.792;2023-02-28T03:09:55;3.63;;;3.30;;
9398;SDS011;4739;49.334;8.792;2023-02-28T03:12:32;3.23;;;2.87;;
9398;SDS011;4739;49.334;8.792;2023-02-28T03:15:18;5.17;;;3.30;;
9398;SDS011;4739;49.334;8.792;2023-02-28T03:20:33;4.37;;;3.40;;
9398;SDS011;4739;49.334;8.792;2023-02-28T03:23:13;5.70;;;3.30;;
9398;SDS011;4739;49.334;8.792;2023-02-28T03:25:52;5.20;;;3.87;;
9398;SDS011;4739;49.334;8.792;2023-02-28T03:33:42;4.37;;;3.20;;
9398;SDS011;4739;49.334;8.792;2023-02-28T03:36:20;4.90;;;3.40;;
9398;SDS011;4739;49.334;8.792;2023-02-28T03:38:51;4.33;;;3.43;;
9398;SDS011;4739;49.334;8.792;2023-02-28T03:41:39;3.50;;;3.20;;
9398;SDS011;4739;49.334;8.792;2023-02-28T03:44:06;5.03;;;3.30;;
9398;SDS011;4739;49.334;8.792;2023-02-28T03:46:41;3.90;;;3.33;;
9398;SDS011;4739;49.334;8.792;2023-02-28T03:49:25;4.70;;;3.50;;
9398;SDS011;4739;49.334;8.792;2023-02-28T03:51:56;3.93;;;3.33;;
9398;SDS011;4739;49.334;8.792;2023-02-28T03:54:26;4.53;;;3.77;;
9398;SDS011;4739;49.334;8.792;2023-02-28T03:56:57;4.93;;;4.20;;
9398;SDS011;4739;49.334;8.792;2023-02-28T03:59:30;4.90;;;4.00;;
9398;SDS011;4739;49.334;8.792;2023-02-28T04:02:01;3.97;;;3.40;;
9398;SDS011;4739;49.334;8.792;2023-02-28T04:04:27;5.77;;;5.17;;
9398;SDS011;4739;49.334;8.792;2023-02-28T04:07:00;4.10;;;3.70;;
9398;SDS011;4739;49.334;8.792;2023-02-28T04:09:28;4.63;;;3.83;;
9398;SDS011;4739;49.334;8.792;2023-02-28T04:11:54;4.60;;;3.70;;
9398;SDS011;4739;49.334;8.792;2023-02-28T04:14:23;3.93;;;3.50;;
9398;SDS011;4739;49.334;8.792;2023-02-28T04:16:48;5.73;;;4.00;;
9398;SDS011;4739;49.334;8.792;2023-02-28T04:19:15;4.30;;;3.90;;
9398;SDS011;4739;49.334;8.792;2023-02-28T04:21:43;5.07;;;3.80;;
9398;SDS011;4739;49.334;8.792;2023-02-28T04:24:10;5.97;;;4.57;;
9398;SDS011;4739;49.334;8.792;2023-02-28T04:26:45;4.70;;;3.67;;
9398;SDS011;4739;49.334;8.792;2023-02-28T04:29:13;5.07;;;4.13;;
9398;SDS011;4739;49.334;8.792;2023-02-28T04:31:44;6.53;;;4.40;;
9398;SDS011;4739;49.334;8.792;2023-02-28T04:34:09;4.83;;;4.23;;
9398;SDS011;4739;49.334;8.792;2023-02-28T04:36:35;6.83;;;4.10;;
9398;SDS011;4739;49.334;8.792;2023-02-28T04:39:00;4.30;;;3.70;;
9398;SDS011;4739;49.334;8.792;2023-02-28T04:41:26;4.97;;;4.47;;
9398;SDS011;4739;49.334;8.792;2023-02-28T04:43:52;4.00;;;3.60;;
9398;SDS011;4739;49.334;8.792;2023-02-28T04:46:18;5.40;;;4.33;;
9398;SDS011;4739;49.334;8.792;2023-02-28T04:48:43;7.27;;;6.30;;
9398;SDS011;4739;49.334;8.792;2023-02-28T04:51:10;4.47;;;4.07;;
9398;SDS011;4739;49.334;8.792;2023-02-28T04:53:38;5.40;;;4.07;;
9398;SDS011;4739;49.334;8.792;2023-02-28T04:56:05;5.10;;;4.30;;
9398;SDS011;4739;49.334;8.792;2023-02-28T04:58:32;5.33;;;4.10;;
9398;SDS011;4739;49.334;8.792;2023-02-28T05:01:03;4.73;;;4.00;;
9398;SDS011;4739;49.334;8.792;2023-02-28T05:03:37;5.07;;;3.90;;
9398;SDS011;4739;49.334;8.792;2023-02-28T05:06:05;6.23;;;3.90;;
9398;SDS011;4739;49.334;8.792;2023-02-28T05:08:31;5.07;;;3.83;;
9398;SDS011;4739;49.334;8.792;2023-02-28T05:10:57;4.50;;;3.67;;
9398;SDS011;4739;49.334;8.792;2023-02-28T05:13:23;5.33;;;3.90;;
9398;SDS011;4739;49.334;8.792;2023-02-28T05:15:49;5.40;;;3.83;;
9398;SDS011;4739;49.334;8.792;2023-02-28T05:18:14;5.00;;;4.00;;
9398;SDS011;4739;49.334;8.792;2023-02-28T05:20:40;6.33;;;3.87;;
9398;SDS011;4739;49.334;8.792;2023-02-28T05:23:05;5.57;;;3.63;;
9398;SDS011;4739;49.334;8.792;2023-02-28T05:25:31;4.20;;;3.50;;
9398;SDS011;4739;49.334;8.792;2023-02-28T05:27:56;5.03;;;3.73;;
9398;SDS011;4739;49.334;8.792;2023-02-28T05:30:22;5.63;;;4.07;;
9398;SDS011;4739;49.334;8.792;2023-02-28T05:32:49;5.03;;;4.07;;
9398;SDS011;4739;49.334;8.792;2023-02-28T05:35:16;5.03;;;4.23;;
9398;SDS011;4739;49.334;8.792;2023-02-28T05:37:42;3.70;;;3.30;;
9398;SDS011;4739;49.334;8.792;2023-02-28T05:40:08;4.93;;;3.80;;
9398;SDS011;4739;49.334;8.792;2023-02-28T05:42:37;5.73;;;3.67;;
9398;SDS011;4739;49.334;8.792;2023-02-28T05:45:04;4.80;;;4.10;;
9398;SDS011;4739;49.334;8.792;2023-02-28T05:47:30;6.17;;;3.90;;
9398;SDS011;4739;49.334;8.792;2023-02-28T05:49:56;5.27;;;4.37;;
9398;SDS011;4739;49.334;8.792;2023-02-28T05:52:21;5.10;;;3.77;;
9398;SDS011;4739;49.334;8.792;2023-02-28T05:54:47;5.67;;;4.30;;
9398;SDS011;4739;49.334;8.792;2023-02-28T05:57:13;4.50;;;3.97;;
9398;SDS011;4739;49.334;8.792;2023-02-28T05:59:38;6.47;;;3.73;;
9398;SDS011;4739;49.334;8.792;2023-02-28T06:02:05;5.23;;;4.73;;
9398;SDS011;4739;49.334;8.792;2023-02-28T06:04:31;4.87;;;4.13;;
9398;SDS011;4739;49.334;8.792;2023-02-28T06:06:57;4.43;;;3.90;;
9398;SDS011;4739;49.334;8.792;2023-02-28T06:09:22;4.70;;;4.20;;
9398;SDS011;4739;49.334;8.792;2023-02-28T06:11:48;4.40;;;4.00;;
9398;SDS011;4739;49.334;8.792;2023-02-28T06:14:14;4.53;;;3.83;;
9398;SDS011;4739;49.334;8.792;2023-02-28T06:16:42;4.47;;;4.07;;
9398;SDS011;4739;49.334;8.792;2023-02-28T06:19:08;5.57;;;4.57;;
9398;SDS011;4739;49.334;8.792;2023-02-28T06:21:34;5.87;;;4.60;;
9398;SDS011;4739;49.334;8.792;2023-02-28T06:24:01;6.47;;;5.23;;
9398;SDS011;4739;49.334;8.792;2023-02-28T06:26:27;5.13;;;4.63;;
9398;SDS011;4739;49.334;8.792;2023-02-28T06:28:53;6.27;;;5.20;;
9398;SDS011;4739;49.334;8.792;2023-02-28T06:31:19;6.97;;;4.63;;
9398;SDS011;4739;49.334;8.792;2023-02-28T06:33:47;7.20;;;5.00;;
9398;SDS011;4739;49.334;8.792;2023-02-28T06:36:13;5.40;;;4.63;;
9398;SDS011;4739;49.334;8.792;2023-02-28T06:38:40;6.20;;;4.87;;
9398;SDS011;4739;49.334;8.792;2023-02-28T06:41:06;5.20;;;4.70;;
9398;SDS011;4739;49.334;8.792;2023-02-28T06:43:34;8.30;;;4.70;;
9398;SDS011;4739;49.334;8.792;2023-02-28T06:46:02;5.93;;;5.20;;
9398;SDS011;4739;49.334;8.792;2023-02-28T06:48:29;6.67;;;4.97;;
9398;SDS011;4739;49.334;8.792;2023-02-28T06:51:06;7.83;;;5.13;;
9398;SDS011;4739;49.334;8.792;2023-02-28T06:53:33;5.30;;;4.63;;
9398;SDS011;4739;49.334;8.792;2023-02-28T06:55:59;7.63;;;5.00;;
9398;SDS011;4739;49.334;8.792;2023-02-28T06:58:24;5.63;;;5.10;;
9398;SDS011;4739;49.334;8.792;2023-02-28T07:00:51;5.73;;;4.97;;
9398;SDS011;4739;49.334;8.792;2023-02-28T07:03:17;5.70;;;5.17;;
9398;SDS011;4739;49.334;8.792;2023-02-28T07:05:43;6.20;;;5.27;;
9398;SDS011;4739;49.334;8.792;2023-02-28T07:08:09;7.23;;;5.27;;
9398;SDS011;4739;49.334;8.792;2023-02-28T07:10:38;6.60;;;5.80;;
9398;SDS011;4739;49.334;8.792;2023-02-28T07:13:04;6.73;;;5.33;;
9398;SDS011;4739;49.334;8.792;2023-02-28T07:15:30;7.13;;;5.47;;
9398;SDS011;4739;49.334;8.792;2023-02-28T07:17:56;5.73;;;4.87;;
9398;SDS011;4739;49.334;8.792;2023-02-28T07:20:22;6.50;;;5.17;;
9398;SDS011;4739;49.334;8.792;2023-02-28T07:22:48;6.87;;;5.77;;
9398;SDS011;4739;49.334;8.792;2023-02-28T07:25:21;5.87;;;5.20;;
9398;SDS011;4739;49.334;8.792;2023-02-28T07:27:48;10.63;;;6.20;;
9398;SDS011;4739;49.334;8.792;2023-02-28T07:30:14;6.23;;;4.87;;
9398;SDS011;4739;49.334;8.792;2023-02-28T07:32:39;5.97;;;5.17;;
9398;SDS011;4739;49.334;8.792;2023-02-28T07:35:05;7.67;;;5.07;;
9398;SDS011;4739;49.334;8.792;2023-02-28T07:37:31;6.73;;;5.40;;
9398;SDS011;4739;49.334;8.792;2023-02-28T07:40:02;8.03;;;5.80;;
9398;SDS011;4739;49.334;8.792;2023-02-28T07:42:33;8.10;;;5.97;;
9398;SDS011;4739;49.334;8.792;2023-02-28T07:44:59;7.07;;;5.10;;
9398;SDS011;4739;49.334;8.792;2023-02-28T07:47:25;5.67;;;4.90;;
9398;SDS011;4739;49.334;8.792;2023-02-28T07:49:51;8.73;;;5.90;;
9398;SDS011;4739;49.334;8.792;2023-02-28T07:52:16;7.33;;;5.70;;
9398;SDS011;4739;49.334;8.792;2023-02-28T07:54:42;7.47;;;5.40;;
9398;SDS011;4739;49.334;8.792;2023-02-28T07:57:08;8.20;;;5.90;;
9398;SDS011;4739;49.334;8.792;2023-02-28T07:59:33;6.47;;;5.63;;
9398;SDS011;4739;49.334;8.792;2023-02-28T08:01:59;8.67;;;6.70;;
9398;SDS011;4739;49.334;8.792;2023-02-28T08:04:24;7.93;;;6.20;;
9398;SDS011;4739;49.334;8.792;2023-02-28T08:06:51;7.23;;;5.63;;
9398;SDS011;4739;49.334;8.792;2023-02-28T08:09:21;8.00;;;5.97;;
9398;SDS011;4739;49.334;8.792;2023-02-28T08:11:46;6.80;;;5.73;;
9398;SDS011;4739;49.334;8.792;2023-02-28T08:14:12;8.90;;;5.40;;
9398;SDS011;4739;49.334;8.792;2023-02-28T08:16:38;6.83;;;5.90;;
9398;SDS011;4739;49.334;8.792;2023-02-28T08:19:04;7.87;;;6.07;;
9398;SDS011;4739;49.334;8.792;2023-02-28T08:21:29;5.90;;;5.30;;
9398;SDS011;4739;49.334;8.792;2023-02-28T08:23:55;9.17;;;6.00;;
9398;SDS011;4739;49.334;8.792;2023-02-28T08:26:22;7.53;;;6.17;;
9398;SDS011;4739;49.334;8.792;2023-02-28T08:28:47;7.43;;;5.87;;
9398;SDS011;4739;49.334;8.792;2023-02-28T08:31:14;7.03;;;5.60;;
9398;SDS011;4739;49.334;8.792;2023-02-28T08:33:41;7.03;;;5.67;;
9398;SDS011;4739;49.334;8.792;2023-02-28T08:36:10;9.47;;;6.27;;
9398;SDS011;4739;49.334;8.792;2023-02-28T08:38:37;8.00;;;6.10;;
9398;SDS011;4739;49.334;8.792;2023-02-28T08:41:05;6.17;;;5.33;;
9398;SDS011;4739;49.334;8.792;2023-02-28T08:43:33;6.33;;;5.33;;
9398;SDS011;4739;49.334;8.792;2023-02-28T08:46:00;9.37;;;6.33;;
9398;SDS011;4739;49.334;8.792;2023-02-28T08:48:30;8.33;;;5.80;;
9398;SDS011;4739;49.334;8.792;2023-02-28T08:53:26;14.87;;;8.00;;
9398;SDS011;4739;49.334;8.792;2023-02-28T08:55:57;10.53;;;7.20;;
9398;SDS011;4739;49.334;8.792;2023-02-28T08:58:27;9.13;;;6.00;;
9398;SDS011;4739;49.334;8.792;2023-02-28T09:00:53;6.63;;;5.93;;
9398;SDS011;4739;49.334;8.792;2023-02-28T09:03:21;7.60;;;6.77;;
9398;SDS011;4739;49.334;8.792;2023-02-28T09:05:51;7.57;;;5.87;;
9398;SDS011;4739;49.334;8.792;2023-02-28T09:08:21;9.17;;;6.27;;
9398;SDS011;4739;49.334;8.792;2023-02-28T09:10:48;7.77;;;5.90;;
9398;SDS011;4739;49.334;8.792;2023-02-28T09:13:14;5.90;;;5.30;;
9398;SDS011;4739;49.334;8.792;2023-02-28T09:15:39;6.80;;;6.10;;
9398;SDS011;4739;49.334;8.792;2023-02-28T09:18:06;6.83;;;5.80;;
9398;SDS011;4739;49.334;8.792;2023-02-28T09:20:32;7.17;;;6.10;;
9398;SDS011;4739;49.334;8.792;2023-02-28T09:22:58;6.60;;;5.77;;
9398;SDS011;4739;49.334;8.792;2023-02-28T09:25:23;7.57;;;5.97;;
9398;SDS011;4739;49.334;8.792;2023-02-28T09:27:50;6.40;;;5.53;;
9398;SDS011;4739;49.334;8.792;2023-02-28T09:30:16;8.87;;;5.90;;
9398;SDS011;4739;49.334;8.792;2023-02-28T09:32:42;8.50;;;5.90;;
9398;SDS011;4739;49.334;8.792;2023-02-28T09:35:07;6.90;;;6.20;;
9398;SDS011;4739;49.334;8.792;2023-02-28T09:37:41;8.13;;;6.23;;
9398;SDS011;4739;49.334;8.792;2023-02-28T09:40:07;7.63;;;6.23;;
9398;SDS011;4739;49.334;8.792;2023-02-28T09:42:34;7.33;;;6.40;;
9398;SDS011;4739;49.334;8.792;2023-02-28T09:45:00;8.77;;;6.30;;
9398;SDS011;4739;49.334;8.792;2023-02-28T09:47:33;7.37;;;5.53;;
9398;SDS011;4739;49.334;8.792;2023-02-28T09:50:07;8.13;;;6.17;;
9398;SDS011;4739;49.334;8.792;2023-02-28T09:52:51;8.37;;;6.30;;
9398;SDS011;4739;49.334;8.792;2023-02-28T09:57:47;8.43;;;6.30;;
9398;SDS011;4739;49.334;8.792;2023-02-28T10:00:19;7.53;;;5.87;;
9398;SDS011;4739;49.334;8.792;2023-02-28T10:08:23;7.27;;;5.97;;
9398;SDS011;4739;49.334;8.792;2023-02-28T10:11:03;8.03;;;5.93;;
9398;SDS011;4739;49.334;8.792;2023-02-28T10:16:03;8.73;;;5.80;;
9398;SDS011;4739;49.334;8.792;2023-02-28T10:18:41;7.80;;;6.33;;
9398;SDS011;4739;49.334;8.792;2023-02-28T10:21:23;6.93;;;6.00;;
9398;SDS011;4739;49.334;8.792;2023-02-28T10:23:53;7.00;;;6.37;;
9398;SDS011;4739;49.334;8.792;2023-02-28T10:26:47;7.33;;;5.70;;
9398;SDS011;4739;49.334;8.792;2023-02-28T10:29:13;7.47;;;6.63;;
9398;SDS011;4739;49.334;8.792;2023-02-28T10:31:40;8.30;;;6.07;;
9398;SDS011;4739;49.334;8.792;2023-02-28T10:34:07;14.33;;;7.03;;
9398;SDS011;4739;49.334;8.792;2023-02-28T10:36:36;7.40;;;6.13;;
9398;SDS011;4739;49.334;8.792;2023-02-28T10:39:33;7.23;;;6.20;;
9398;SDS011;4739;49.334;8.792;2023-02-28T10:42:02;9.33;;;6.27;;
9398;SDS011;4739;49.334;8.792;2023-02-28T10:44:28;8.80;;;7.40;;
9398;SDS011;4739;49.334;8.792;2023-02-28T10:46:54;8.30;;;6.43;;
9398;SDS011;4739;49.334;8.792;2023-02-28T10:49:22;8.17;;;6.67;;
9398;SDS011;4739;49.334;8.792;2023-02-28T10:54:19;9.83;;;6.40;;
9398;SDS011;4739;49.334;8.792;2023-02-28T10:57:23;7.47;;;6.63;;
9398;SDS011;4739;49.334;8.792;2023-02-28T11:00:06;7.83;;;6.90;;
9398;SDS011;4739;49.334;8.792;2023-02-28T11:02:52;7.83;;;6.47;;
9398;SDS011;4739;49.334;8.792;2023-02-28T11:07:52;8.00;;;7.20;;
9398;SDS011;4739;49.334;8.792;2023-02-28T11:10:30;8.37;;;6.50;;
9398;SDS011;4739;49.334;8.792;2023-02-28T11:12:59;7.30;;;6.60;;
9398;SDS011;4739;49.334;8.792;2023-02-28T11:15:28;7.30;;;6.60;;
9398;SDS011;4739;49.334;8.792;2023-02-28T11:20:58;8.40;;;6.40;;
9398;SDS011;4739;49.334;8.792;2023-02-28T11:23:26;7.90;;;7.03;;
9398;SDS011;4739;49.334;8.792;2023-02-28T11:26:00;7.63;;;6.83;;
9398;SDS011;4739;49.334;8.792;2023-02-28T11:28:36;8.20;;;6.90;;
9398;SDS011;4739;49.334;8.792;2023-02-28T11:33:49;7.50;;;6.43;;
9398;SDS011;4739;49.334;8.792;2023-02-28T11:38:44;7.97;;;6.60;;
9398;SDS011;4739;49.334;8.792;2023-02-28T11:46:47;8.53;;;7.20;;
9398;SDS011;4739;49.334;8.792;2023-02-28T11:49:26;7.57;;;6.77;;
9398;SDS011;4739;49.334;8.792;2023-02-28T11:52:20;9.20;;;6.70;;
9398;SDS011;4739;49.334;8.792;2023-02-28T12:11:51;10.03;;;7.77;;
9398;SDS011;4739;49.334;8.792;2023-02-28T12:23:23;11.03;;;6.83;;
9398;SDS011;4739;49.334;8.792;2023-02-28T12:26:21;9.13;;;7.03;;
9398;SDS011;4739;49.334;8.792;2023-02-28T12:31:44;7.63;;;6.93;;
9398;SDS011;4739;49.334;8.792;2023-02-28T12:34:16;13.27;;;7.53;;
9398;SDS011;4739;49.334;8.792;2023-02-28T12:36:47;14.90;;;8.07;;
9398;SDS011;4739;49.334;8.792;2023-02-28T12:39:23;14.57;;;7.53;;
9398;SDS011;4739;49.334;8.792;2023-02-28T12:42:00;11.37;;;7.77;;
9398;SDS011;4739;49.334;8.792;2023-02-28T12:44:34;18.97;;;8.27;;
9398;SDS011;4739;49.334;8.792;2023-02-28T12:47:12;14.87;;;7.83;;
9398;SDS011;4739;49.334;8.792;2023-02-28T12:49:56;16.33;;;8.47;;
9398;SDS011;4739;49.334;8.792;2023-02-28T12:52:35;15.00;;;8.73;;
9398;SDS011;4739;49.334;8.792;2023-02-28T12:55:29;13.80;;;7.97;;
9398;SDS011;4739;49.334;8.792;2023-02-28T13:11:58;8.63;;;7.83;;
9398;SDS011;4739;49.334;8.792;2023-02-28T13:14:20;8.70;;;7.83;;
9398;SDS011;4739;49.334;8.792;2023-02-28T13:17:01;11.90;;;8.80;;
9398;SDS011;4739;49.334;8.792;2023-02-28T13:19:45;13.13;;;8.27;;
9398;SDS011;4739;49.334;8.792;2023-02-28T13:27:45;10.13;;;8.33;;
9398;SDS011;4739;49.334;8.792;2023-02-28T13:33:36;8.97;;;7.90;;
9398;SDS011;4739;49.334;8.792;2023-02-28T13:38:46;10.07;;;7.80;;
9398;SDS011;4739;49.334;8.792;2023-02-28T13:44:13;9.00;;;7.83;;
9398;SDS011;4739;49.334;8.792;2023-02-28T13:51:55;8.90;;;8.00;;
9398;SDS011;4739;49.334;8.792;2023-02-28T13:57:41;9.37;;;8.00;;
9398;SDS011;4739;49.334;8.792;2023-02-28T14:00:22;13.83;;;8.67;;
9398;SDS011;4739;49.334;8.792;2023-02-28T14:02:57;9.03;;;8.00;;
9398;SDS011;4739;49.334;8.792;2023-02-28T14:05:35;8.53;;;7.30;;
9398;SDS011;4739;49.334;8.792;2023-02-28T14:08:07;13.37;;;7.80;;
9398;SDS011;4739;49.334;8.792;2023-02-28T14:10:46;10.87;;;7.90;;
9398;SDS011;4739;49.334;8.792;2023-02-28T14:16:10;8.50;;;7.60;;
9398;SDS011;4739;49.334;8.792;2023-02-28T14:18:40;9.77;;;8.17;;
9398;SDS011;4739;49.334;8.792;2023-02-28T14:21:23;12.50;;;8.33;;
9398;SDS011;4739;49.334;8.792;2023-02-28T14:32:02;8.70;;;7.90;;
9398;SDS011;4739;49.334;8.792;2023-02-28T14:37:56;8.87;;;7.97;;
9398;SDS011;4739;49.334;8.792;2023-02-28T14:40:40;8.40;;;7.50;;
9398;SDS011;4739;49.334;8.792;2023-02-28T14:43:06;8.50;;;7.27;;
9398;SDS011;4739;49.334;8.792;2023-02-28T14:45:48;8.53;;;7.63;;
9398;SDS011;4739;49.334;8.792;2023-02-28T14:48:16;8.57;;;7.77;;
9398;SDS011;4739;49.334;8.792;2023-02-28T14:50:48;9.83;;;8.10;;
9398;SDS011;4739;49.334;8.792;2023-02-28T14:53:18;9.27;;;8.40;;
9398;SDS011;4739;49.334;8.792;2023-02-28T14:55:46;9.17;;;8.20;;
9398;SDS011;4739;49.334;8.792;2023-02-28T14:58:21;24.90;;;9.03;;
9398;SDS011;4739;49.334;8.792;2023-02-28T15:00:52;9.80;;;8.17;;
9398;SDS011;4739;49.334;8.792;2023-02-28T15:05:56;11.17;;;7.67;;
9398;SDS011;4739;49.334;8.792;2023-02-28T15:08:23;9.20;;;8.30;;
9398;SDS011;4739;49.334;8.792;2023-02-28T15:10:55;9.00;;;7.97;;
9398;SDS011;4739;49.334;8.792;2023-02-28T15:13:28;9.07;;;8.17;;
9398;SDS011;4739;49.334;8.792;2023-02-28T15:16:06;12.50;;;11.20;;
9398;SDS011;4739;49.334;8.792;2023-02-28T15:21:21;9.10;;;8.20;;
9398;SDS011;4739;49.334;8.792;2023-02-28T15:26:39;9.00;;;8.10;;
9398;SDS011;4739;49.334;8.792;2023-02-28T15:29:11;8.37;;;7.07;;
9398;SDS011;4739;49.334;8.792;2023-02-28T15:31:44;9.50;;;8.47;;
9398;SDS011;4739;49.334;8.792;2023-02-28T15:34:18;9.73;;;7.83;;
9398;SDS011;4739;49.334;8.792;2023-02-28T15:36:46;8.13;;;7.17;;
9398;SDS011;4739;49.334;8.792;2023-02-28T15:39:46;8.73;;;7.67;;
9398;SDS011;4739;49.334;8.792;2023-02-28T15:42:12;8.77;;;7.87;;
9398;SDS011;4739;49.334;8.792;2023-02-28T15:44:45;9.30;;;7.93;;
9398;SDS011;4739;49.334;8.792;2023-02-28T15:47:20;8.63;;;7.53;;
9398;SDS011;4739;49.334;8.792;2023-02-28T15:49:58;8.70;;;7.70;;
9398;SDS011;4739;49.334;8.792;2023-02-28T15:52:41;8.33;;;7.43;;
9398;SDS011;4739;49.334;8.792;2023-02-28T15:55:10;8.93;;;7.60;;
9398;SDS011;4739;49.334;8.792;2023-02-28T15:57:38;10.00;;;8.93;;
9398;SDS011;4739;49.334;8.792;2023-02-28T16:00:06;11.37;;;7.73;;
9398;SDS011;4739;49.334;8.792;2023-02-28T16:02:37;9.20;;;8.27;;
9398;SDS011;4739;49.334;8.792;2023-02-28T16:07:35;12.37;;;9.20;;
9398;SDS011;4739;49.334;8.792;2023-02-28T16:10:06;8.77;;;7.83;;
9398;SDS011;4739;49.334;8.792;2023-02-28T16:12:34;9.10;;;8.00;;
9398;SDS011;4739;49.334;8.792;2023-02-28T16:15:03;9.37;;;8.30;;
9398;SDS011;4739;49.334;8.792;2023-02-28T16:17:34;10.40;;;7.40;;
9398;SDS011;4739;49.334;8.792;2023-02-28T16:20:05;9.23;;;8.33;;
9398;SDS011;4739;49.334;8.792;2023-02-28T16:22:41;8.73;;;7.83;;
9398;SDS011;4739;49.334;8.792;2023-02-28T16:25:11;8.67;;;7.77;;
9398;SDS011;4739;49.334;8.792;2023-02-28T16:27:41;11.10;;;7.87;;
9398;SDS011;4739;49.334;8.792;2023-02-28T16:30:09;10.63;;;8.47;;
9398;SDS011;4739;49.334;8.792;2023-02-28T16:32:47;9.03;;;8.13;;
9398;SDS011;4739;49.334;8.792;2023-02-28T16:35:13;8.77;;;7.90;;
9398;SDS011;4739;49.334;8.792;2023-02-28T16:37:39;8.63;;;7.70;;
9398;SDS011;4739;49.334;8.792;2023-02-28T16:40:06;9.07;;;8.03;;
9398;SDS011;4739;49.334;8.792;2023-02-28T16:42:43;9.30;;;8.40;;
9398;SDS011;4739;49.334;8.792;2023-02-28T16:45:14;8.87;;;7.37;;
9398;SDS011;4739;49.334;8.792;2023-02-28T16:47:48;8.60;;;7.57;;
9398;SDS011;4739;49.334;8.792;2023-02-28T16:50:24;8.53;;;7.63;;
9398;SDS011;4739;49.334;8.792;2023-02-28T16:52:51;8.90;;;8.00;;
9398;SDS011;4739;49.334;8.792;2023-02-28T16:55:17;9.63;;;8.63;;
9398;SDS011;4739;49.334;8.792;2023-02-28T16:57:44;8.80;;;7.67;;
9398;SDS011;4739;49.334;8.792;2023-02-28T17:00:14;10.47;;;8.33;;
9398;SDS011;4739;49.334;8.792;2023-02-28T17:02:40;11.07;;;8.30;;
9398;SDS011;4739;49.334;8.792;2023-02-28T17:05:06;9.60;;;8.00;;
9398;SDS011;4739;49.334;8.792;2023-02-28T17:07:31;9.73;;;7.90;;
9398;SDS011;4739;49.334;8.792;2023-02-28T17:09:57;9.33;;;8.43;;
9398;SDS011;4739;49.334;8.792;2023-02-28T17:12:24;9.50;;;7.87;;
9398;SDS011;4739;49.334;8.792;2023-02-28T17:14:49;9.30;;;7.93;;
9398;SDS011;4739;49.334;8.792;2023-02-28T17:17:16;10.93;;;8.97;;
9398;SDS011;4739;49.334;8.792;2023-02-28T17:19:44;10.43;;;8.30;;
9398;SDS011;4739;49.334;8.792;2023-02-28T17:22:10;9.43;;;8.43;;
9398;SDS011;4739;49.334;8.792;2023-02-28T17:24:36;10.30;;;9.07;;
9398;SDS011;4739;49.334;8.792;2023-02-28T17:27:02;11.50;;;9.60;;
9398;SDS011;4739;49.334;8.792;2023-02-28T17:29:28;11.47;;;9.43;;
9398;SDS011;4739;49.334;8.792;2023-02-28T17:31:53;11.20;;;10.00;;
9398;SDS011;4739;49.334;8.792;2023-02-28T17:34:20;9.17;;;8.27;;
9398;SDS011;4739;49.334;8.792;2023-02-28T17:36:46;10.90;;;9.63;;
9398;SDS011;4739;49.334;8.792;2023-02-28T17:39:13;10.60;;;9.50;;
9398;SDS011;4739;49.334;8.792;2023-02-28T17:41:44;9.20;;;8.30;;
9398;SDS011;4739;49.334;8.792;2023-02-28T17:44:10;10.50;;;8.27;;
9398;SDS011;4739;49.334;8.792;2023-02-28T17:46:35;9.60;;;7.70;;
9398;SDS011;4739;49.334;8.792;2023-02-28T17:49:02;10.97;;;8.47;;
9398;SDS011;4739;49.334;8.792;2023-02-28T17:51:28;9.43;;;8.23;;
9398;SDS011;4739;49.334;8.792;2023-02-28T17:53:53;8.87;;;7.93;;
9398;SDS011;4739;49.334;8.792;2023-02-28T17:56:21;9.87;;;8.83;;
9398;SDS011;4739;49.334;8.792;2023-02-28T17:58:48;11.83;;;8.30;;
9398;SDS011;4739;49.334;8.792;2023-02-28T18:01:15;10.63;;;8.07;;